Time;durP1;ratioP1;P1;durP2;ratioP2;P2;SDS_P1;SDS_P2;PMS_P1;PMS_P2;Temp;Humidity;BMP_temperature;BMP_pressure;BME280_temperature;BME280_humidity;BME280_pressure;Samples;Min_cycle;Max_cycle;Signal;HPM_P1;HPM_P2
2023/05/16 00:01:46;;;;;;;13.48;2.10;;;9.70;99.90;;;;;;5058226;28;20870;-81
2023/05/16 00:04:13;;;;;;;12.10;2.08;;;9.70;99.90;;;;;;5091237;28;20083;-80
2023/05/16 00:06:40;;;;;;;16.38;2.45;;;9.70;99.90;;;;;;5074758;28;20044;-80
2023/05/16 00:09:06;;;;;;;22.00;2.70;;;9.60;99.90;;;;;;5058241;28;20036;-80
2023/05/16 00:11:33;;;;;;;16.30;2.10;;;9.60;99.90;;;;;;5074802;28;20056;-80
2023/05/16 00:14:00;;;;;;;15.27;2.28;;;9.50;99.90;;;;;;5107468;28;20040;-80
2023/05/16 00:16:28;;;;;;;8.18;1.67;;;9.50;99.90;;;;;;5058122;28;20075;-80
2023/05/16 00:18:56;;;;;;;7.60;1.77;;;9.40;99.90;;;;;;5062764;28;20045;-80
2023/05/16 00:21:23;;;;;;;11.50;1.77;;;9.40;99.90;;;;;;5038569;28;20382;-80
2023/05/16 00:23:51;;;;;;;15.30;1.88;;;9.30;99.90;;;;;;5037966;28;20047;-81
2023/05/16 00:26:18;;;;;;;10.88;1.80;;;9.30;99.90;;;;;;5070995;28;20513;-80
2023/05/16 00:28:45;;;;;;;15.20;3.03;;;9.20;99.90;;;;;;5054257;28;20044;-80
2023/05/16 00:31:12;;;;;;;16.58;2.35;;;9.20;99.90;;;;;;5038069;28;20039;-80
2023/05/16 00:33:38;;;;;;;11.95;2.22;;;9.20;99.90;;;;;;5054334;28;20051;-80
2023/05/16 00:36:05;;;;;;;9.40;1.77;;;9.20;99.90;;;;;;5037625;28;20076;-80
2023/05/16 00:38:32;;;;;;;14.40;2.05;;;9.20;99.90;;;;;;5041636;28;20067;-80
2023/05/16 00:40:59;;;;;;;10.32;1.30;;;9.10;99.90;;;;;;5090190;28;20094;-80
2023/05/16 00:43:26;;;;;;;9.23;2.05;;;9.10;99.90;;;;;;5074217;28;20097;-80
2023/05/16 00:45:52;;;;;;;13.15;2.22;;;9.10;99.90;;;;;;5073459;28;20102;-81
2023/05/16 00:48:19;;;;;;;9.75;1.92;;;9.10;99.90;;;;;;5057118;28;20064;-80
2023/05/16 00:50:46;;;;;;;10.07;1.73;;;9.00;99.90;;;;;;5054428;28;20041;-80
2023/05/16 00:53:13;;;;;;;17.27;2.25;;;9.00;99.90;;;;;;5037210;28;20044;-80
2023/05/16 00:55:40;;;;;;;13.93;2.47;;;9.00;99.90;;;;;;5070009;28;20401;-80
2023/05/16 00:58:07;;;;;;;12.30;1.83;;;8.90;99.90;;;;;;5053242;28;20033;-80
2023/05/16 01:00:35;;;;;;;10.10;1.85;;;8.90;99.90;;;;;;5070019;28;20043;-80
2023/05/16 01:03:04;;;;;;;10.50;1.90;;;8.90;99.90;;;;;;5037130;28;20509;-80
2023/05/16 01:05:32;;;;;;;11.25;1.98;;;8.80;99.90;;;;;;5054341;28;20037;-80
2023/05/16 01:07:58;;;;;;;10.50;1.90;;;8.80;99.90;;;;;;5053284;28;20127;-81
2023/05/16 01:10:33;;;;;;;14.57;1.77;;;8.80;99.90;;;;;;5037715;28;20132;-80
2023/05/16 01:13:14;;;;;;;10.93;2.00;;;8.80;99.90;;;;;;5069796;28;20037;-80
2023/05/16 01:15:48;;;;;;;9.43;2.60;;;8.80;99.90;;;;;;5070381;28;20040;-80
2023/05/16 01:18:36;;;;;;;20.23;2.17;;;8.80;99.90;;;;;;5069759;28;20091;-81
2023/05/16 01:21:28;;;;;;;10.50;1.77;;;8.80;99.90;;;;;;5080092;28;20044;-81
2023/05/16 01:24:08;;;;;;;11.07;1.85;;;8.80;99.90;;;;;;5106059;28;20558;-80
2023/05/16 01:26:35;;;;;;;15.20;1.80;;;8.70;99.90;;;;;;5089780;28;20098;-80
2023/05/16 01:29:03;;;;;;;10.77;1.70;;;8.70;99.90;;;;;;5072488;28;20075;-81
2023/05/16 01:31:29;;;;;;;9.82;1.92;;;8.70;99.90;;;;;;5056477;28;20032;-80
2023/05/16 01:33:56;;;;;;;8.50;1.58;;;8.70;99.90;;;;;;5056876;28;20135;-80
2023/05/16 01:36:58;;;;;;;11.05;1.63;;;8.70;99.90;;;;;;5073105;28;20048;-80
2023/05/16 01:39:29;;;;;;;10.32;1.77;;;8.70;99.90;;;;;;5089903;28;20424;-80
2023/05/16 01:42:05;;;;;;;11.10;2.40;;;8.60;99.90;;;;;;5077873;28;20120;-80
2023/05/16 01:44:31;;;;;;;;;;;8.60;99.90;;;;;;5070036;28;20080;-80
2023/05/16 01:47:01;;;;;;;9.05;1.58;;;8.70;99.90;;;;;;5069131;28;20021;-80
2023/05/16 01:50:04;;;;;;;9.65;1.90;;;8.60;99.90;;;;;;5069520;28;20045;-80
2023/05/16 01:52:59;;;;;;;8.05;1.50;;;8.60;99.90;;;;;;5069444;28;20060;-80
2023/05/16 01:55:43;;;;;;;15.20;1.95;;;8.50;99.90;;;;;;5069271;28;20025;-80
2023/05/16 01:58:11;;;;;;;11.95;2.00;;;8.50;99.90;;;;;;5088299;28;20377;-80
2023/05/16 02:00:39;;;;;;;11.02;2.05;;;8.40;99.90;;;;;;5056491;28;20040;-80
2023/05/16 02:03:06;;;;;;;8.90;1.60;;;8.40;99.90;;;;;;5056531;28;20033;-80
2023/05/16 02:05:33;;;;;;;8.48;1.77;;;8.30;99.90;;;;;;5072463;28;20127;-80
2023/05/16 02:08:00;;;;;;;11.95;2.00;;;8.30;99.90;;;;;;5073157;28;20178;-80
2023/05/16 02:10:27;;;;;;;12.57;1.50;;;8.30;99.90;;;;;;5052224;28;20668;-80
2023/05/16 02:12:53;;;;;;;8.18;1.92;;;8.20;99.90;;;;;;5036276;28;20039;-81
2023/05/16 02:15:20;;;;;;;9.57;1.80;;;8.20;99.90;;;;;;5068965;28;20511;-80
2023/05/16 02:17:47;;;;;;;10.25;1.70;;;8.20;99.90;;;;;;5052511;28;20055;-80
2023/05/16 02:20:13;;;;;;;8.90;1.73;;;8.20;99.90;;;;;;5035903;28;20557;-80
2023/05/16 02:22:42;;;;;;;8.63;2.00;;;8.20;99.90;;;;;;5036337;28;20455;-80
2023/05/16 02:25:09;;;;;;;9.10;1.67;;;8.10;99.90;;;;;;5052731;28;20080;-80
2023/05/16 02:27:36;;;;;;;13.23;1.90;;;8.10;99.90;;;;;;5042440;28;20095;-80
2023/05/16 02:30:04;;;;;;;7.13;1.42;;;8.10;99.90;;;;;;5055922;28;20044;-80
2023/05/16 02:32:32;;;;;;;8.88;1.58;;;8.00;99.90;;;;;;5056230;28;20044;-80
2023/05/16 02:34:59;;;;;;;12.57;2.30;;;8.10;99.90;;;;;;5072688;28;20045;-80
2023/05/16 02:37:26;;;;;;;8.60;1.58;;;8.00;99.90;;;;;;5086099;28;20771;-80
2023/05/16 02:39:52;;;;;;;8.80;1.40;;;8.00;99.90;;;;;;5054524;28;20531;-80
2023/05/16 02:42:19;;;;;;;10.02;1.75;;;7.90;99.90;;;;;;5039935;28;20068;-80
2023/05/16 02:44:46;;;;;;;10.23;2.05;;;7.90;99.90;;;;;;5056570;28;20045;-80
2023/05/16 02:47:12;;;;;;;7.78;1.60;;;7.80;99.90;;;;;;5072321;28;20509;-80
2023/05/16 02:49:39;;;;;;;12.32;1.92;;;7.80;99.90;;;;;;5073644;28;20043;-80
2023/05/16 02:52:06;;;;;;;8.70;1.73;;;7.80;99.90;;;;;;5085579;28;20040;-80
2023/05/16 02:54:34;;;;;;;8.55;1.70;;;7.90;99.90;;;;;;5039737;28;20033;-80
2023/05/16 02:57:01;;;;;;;8.95;1.73;;;7.90;99.90;;;;;;5055912;28;20044;-80
2023/05/16 02:59:28;;;;;;;10.40;1.98;;;7.90;99.90;;;;;;5042635;28;20120;-80
2023/05/16 03:01:54;;;;;;;12.65;2.63;;;8.00;99.90;;;;;;5059736;28;20051;-80
2023/05/16 03:04:22;;;;;;;6.78;1.60;;;8.00;99.90;;;;;;5058963;28;20044;-80
2023/05/16 03:06:50;;;;;;;13.77;1.90;;;8.00;99.90;;;;;;5059658;28;20037;-80
2023/05/16 03:09:16;;;;;;;8.68;2.00;;;7.90;99.90;;;;;;5109036;28;20049;-80
2023/05/16 03:11:43;;;;;;;9.02;1.60;;;7.90;99.90;;;;;;5092220;28;20044;-80
2023/05/16 03:14:11;;;;;;;14.15;2.17;;;7.90;99.90;;;;;;5059034;28;20431;-80
2023/05/16 03:16:38;;;;;;;9.45;2.05;;;7.80;99.90;;;;;;5075773;28;20132;-80
2023/05/16 03:19:05;;;;;;;12.23;1.75;;;7.90;99.90;;;;;;5059418;28;20049;-80
2023/05/16 03:21:32;;;;;;;8.65;1.75;;;7.80;99.90;;;;;;5079917;28;20052;-80
2023/05/16 03:23:58;;;;;;;9.98;1.70;;;7.80;99.90;;;;;;5055476;28;20083;-80
2023/05/16 03:26:25;;;;;;;11.25;2.15;;;7.80;99.90;;;;;;5038676;28;20133;-80
2023/05/16 03:28:52;;;;;;;7.88;1.40;;;7.80;99.90;;;;;;5039385;28;20072;-80
2023/05/16 03:31:19;;;;;;;9.90;1.60;;;7.80;99.90;;;;;;5055489;28;20090;-80
2023/05/16 03:33:45;;;;;;;10.77;1.60;;;7.70;99.90;;;;;;5055526;28;20040;-80
2023/05/16 03:36:12;;;;;;;8.57;1.83;;;7.70;99.90;;;;;;5038939;28;20106;-80
2023/05/16 03:38:39;;;;;;;11.55;1.77;;;7.70;99.90;;;;;;5055074;28;20123;-80
2023/05/16 03:41:06;;;;;;;12.93;1.67;;;7.80;99.90;;;;;;5071676;28;20124;-80
2023/05/16 03:43:32;;;;;;;11.70;1.70;;;7.80;99.90;;;;;;5038961;28;20398;-80
2023/05/16 03:46:01;;;;;;;6.72;1.60;;;7.80;99.90;;;;;;5055436;28;20127;-80
2023/05/16 03:48:27;;;;;;;11.93;1.50;;;7.90;99.90;;;;;;5054202;28;20516;-81
2023/05/16 03:50:54;;;;;;;10.25;1.60;;;7.90;99.90;;;;;;5054483;28;20037;-80
2023/05/16 03:53:21;;;;;;;8.82;2.00;;;7.90;99.90;;;;;;5054631;28;20033;-81
2023/05/16 03:55:47;;;;;;;9.65;1.90;;;8.00;99.90;;;;;;5055135;28;20281;-81
2023/05/16 03:58:15;;;;;;;12.45;1.63;;;8.00;99.90;;;;;;5054836;28;20727;-81
2023/05/16 04:00:42;;;;;;;8.70;1.63;;;7.90;99.90;;;;;;5054733;28;20044;-81
2023/05/16 04:03:08;;;;;;;12.38;1.73;;;7.90;99.90;;;;;;5054410;28;20052;-81
2023/05/16 04:05:35;;;;;;;11.32;2.05;;;8.00;99.90;;;;;;5038076;28;20083;-81
2023/05/16 04:08:02;;;;;;;9.52;1.50;;;8.00;99.90;;;;;;5054550;28;20045;-81
2023/05/16 04:10:28;;;;;;;13.52;2.15;;;8.00;99.90;;;;;;5054267;28;20077;-81
2023/05/16 04:12:55;;;;;;;7.75;1.95;;;8.00;99.90;;;;;;5055081;28;20040;-81
2023/05/16 04:15:22;;;;;;;8.38;1.83;;;7.90;99.90;;;;;;5038073;28;20037;-81
2023/05/16 04:17:49;;;;;;;8.18;1.90;;;7.90;99.90;;;;;;5049039;28;20496;-81
2023/05/16 04:20:16;;;;;;;8.23;1.67;;;8.00;99.90;;;;;;5058108;28;20047;-81
2023/05/16 04:22:42;;;;;;;8.85;1.83;;;7.90;99.90;;;;;;5057373;28;20044;-81
2023/05/16 04:25:11;;;;;;;12.07;1.90;;;8.00;99.90;;;;;;5058069;28;20040;-81
2023/05/16 04:27:37;;;;;;;8.40;1.65;;;8.00;99.90;;;;;;5052771;28;20037;-81
2023/05/16 04:30:04;;;;;;;5.50;1.63;;;7.90;99.90;;;;;;5038268;28;20094;-81
2023/05/16 04:32:34;;;;;;;13.00;2.13;;;7.90;99.90;;;;;;5037979;28;20033;-81
2023/05/16 04:35:00;;;;;;;14.07;2.17;;;7.90;99.90;;;;;;5054927;28;20080;-80
2023/05/16 04:37:27;;;;;;;12.13;1.70;;;7.90;99.90;;;;;;5053682;28;20076;-81
2023/05/16 04:39:54;;;;;;;11.13;1.55;;;7.90;99.90;;;;;;5038110;28;20037;-80
2023/05/16 04:42:21;;;;;;;11.00;2.05;;;7.80;99.90;;;;;;5037576;28;20049;-81
2023/05/16 04:44:47;;;;;;;11.88;2.25;;;7.90;99.90;;;;;;5037458;28;20052;-81
2023/05/16 04:47:14;;;;;;;10.40;1.75;;;7.90;99.90;;;;;;5053578;28;20060;-81
2023/05/16 04:49:41;;;;;;;9.15;2.30;;;7.90;99.90;;;;;;5055232;28;20877;-81
2023/05/16 04:52:08;;;;;;;10.32;2.10;;;7.90;99.90;;;;;;5057380;28;20041;-80
2023/05/16 04:54:36;;;;;;;7.28;1.63;;;7.90;99.90;;;;;;5057581;28;20039;-81
2023/05/16 04:57:03;;;;;;;15.60;1.92;;;7.90;99.90;;;;;;5074202;28;20536;-80
2023/05/16 04:59:30;;;;;;;14.93;2.08;;;8.00;99.90;;;;;;5055503;28;20056;-81
2023/05/16 05:01:57;;;;;;;7.38;1.40;;;8.00;99.90;;;;;;5073870;28;20047;-81
2023/05/16 05:04:24;;;;;;;14.88;1.95;;;8.00;99.90;;;;;;5053083;28;20044;-81
2023/05/16 05:06:50;;;;;;;7.97;1.60;;;8.10;99.90;;;;;;5053302;28;20128;-81
2023/05/16 05:09:17;;;;;;;9.93;3.05;;;8.10;99.90;;;;;;5053511;28;20493;-81
2023/05/16 05:11:44;;;;;;;13.57;1.80;;;8.20;99.90;;;;;;5053207;28;20120;-81
2023/05/16 05:14:10;;;;;;;8.75;1.80;;;8.20;99.90;;;;;;5055471;28;20041;-81
2023/05/16 05:16:37;;;;;;;10.10;1.70;;;8.30;99.90;;;;;;5069777;28;20041;-81
2023/05/16 05:19:04;;;;;;;9.73;1.55;;;8.30;99.90;;;;;;5054061;28;20037;-81
2023/05/16 05:21:31;;;;;;;11.13;1.50;;;8.40;99.90;;;;;;5054240;28;20040;-81
2023/05/16 05:23:57;;;;;;;7.50;1.92;;;8.50;99.90;;;;;;5053569;28;20047;-81
2023/05/16 05:26:25;;;;;;;13.25;2.00;;;8.60;99.90;;;;;;5053498;28;20044;-81
2023/05/16 05:28:51;;;;;;;6.75;1.35;;;8.80;99.90;;;;;;5053514;28;20036;-81
2023/05/16 05:31:18;;;;;;;11.60;2.20;;;8.90;99.90;;;;;;5053401;28;20148;-81
2023/05/16 05:33:45;;;;;;;11.65;2.13;;;9.10;99.90;;;;;;5054064;28;20029;-80
2023/05/16 05:36:11;;;;;;;7.45;1.27;;;9.20;99.90;;;;;;5036951;28;20106;-80
2023/05/16 05:38:38;;;;;;;14.80;2.15;;;9.20;99.90;;;;;;5036545;28;20511;-80
2023/05/16 05:41:06;;;;;;;7.82;1.52;;;9.20;99.90;;;;;;5053418;28;20132;-80
2023/05/16 05:43:33;;;;;;;9.23;1.60;;;9.10;99.90;;;;;;5036928;28;20098;-81
2023/05/16 05:46:00;;;;;;;9.18;1.45;;;9.10;99.90;;;;;;5036973;28;20045;-80
2023/05/16 05:48:28;;;;;;;7.00;1.60;;;9.10;99.90;;;;;;5069384;28;20049;-80
2023/05/16 05:50:55;;;;;;;8.68;1.65;;;9.20;99.90;;;;;;5041491;28;20500;-80
2023/05/16 05:53:22;;;;;;;10.95;1.77;;;9.20;99.90;;;;;;5037238;28;20546;-80
2023/05/16 05:55:49;;;;;;;9.00;1.75;;;9.30;99.90;;;;;;5065299;28;20088;-80
2023/05/16 05:58:17;;;;;;;6.82;1.88;;;9.30;99.90;;;;;;5069316;28;20037;-80
2023/05/16 06:00:43;;;;;;;6.00;1.42;;;9.40;99.90;;;;;;5053014;28;20037;-80
2023/05/16 06:03:13;;;;;;;9.25;1.60;;;9.50;99.90;;;;;;5069524;28;20044;-80
2023/05/16 06:05:40;;;;;;;9.27;1.63;;;9.60;99.90;;;;;;5080557;28;20424;-81
2023/05/16 06:08:07;;;;;;;11.77;1.67;;;9.70;99.90;;;;;;5041479;28;20045;-80
2023/05/16 06:10:33;;;;;;;6.57;1.33;;;9.80;99.90;;;;;;5036149;28;20383;-81
2023/05/16 06:13:00;;;;;;;6.45;1.60;;;9.80;99.90;;;;;;5052687;28;20044;-81
2023/05/16 06:15:27;;;;;;;9.27;1.38;;;10.00;99.90;;;;;;5040971;28;20032;-80
2023/05/16 06:17:53;;;;;;;9.55;1.55;;;10.00;99.90;;;;;;5040113;28;20037;-80
2023/05/16 06:20:21;;;;;;;11.80;2.13;;;10.10;99.90;;;;;;5040545;28;20106;-81
2023/05/16 06:22:47;;;;;;;7.70;1.58;;;10.00;99.90;;;;;;5056348;28;20536;-81
2023/05/16 06:25:14;;;;;;;5.35;1.40;;;10.00;99.90;;;;;;5057095;28;20128;-81
2023/05/16 06:27:41;;;;;;;8.60;1.55;;;9.90;99.90;;;;;;5060001;28;20896;-81
2023/05/16 06:30:08;;;;;;;6.43;1.45;;;9.80;99.90;;;;;;5076921;28;20135;-81
2023/05/16 06:32:35;;;;;;;8.88;1.40;;;9.80;99.90;;;;;;5060472;28;20037;-81
2023/05/16 06:35:01;;;;;;;9.35;1.60;;;9.70;99.90;;;;;;5059899;28;20147;-81
2023/05/16 06:37:28;;;;;;;5.60;1.15;;;9.70;99.90;;;;;;5076720;28;20417;-80
2023/05/16 06:39:56;;;;;;;7.55;1.85;;;9.80;99.90;;;;;;5049601;28;20558;-81
2023/05/16 06:42:23;;;;;;;5.70;1.10;;;9.90;99.90;;;;;;5085422;28;20161;-81
2023/05/16 06:44:50;;;;;;;6.03;1.77;;;10.00;99.90;;;;;;5045894;28;20552;-80
2023/05/16 06:47:16;;;;;;;6.78;1.15;;;10.20;99.90;;;;;;5046475;28;20057;-82
2023/05/16 06:49:43;;;;;;;12.38;1.40;;;10.50;99.90;;;;;;5072304;28;20037;-82
2023/05/16 06:52:10;;;;;;;8.82;1.63;;;10.60;99.90;;;;;;5062058;28;20044;-82
2023/05/16 06:54:37;;;;;;;5.82;1.08;;;10.80;99.90;;;;;;5056266;28;20049;-82
2023/05/16 06:57:04;;;;;;;6.78;1.23;;;11.00;99.90;;;;;;5062145;28;20037;-81
2023/05/16 06:59:31;;;;;;;9.73;1.13;;;11.00;99.90;;;;;;5059568;28;20040;-82
2023/05/16 07:01:58;;;;;;;10.57;1.35;;;10.90;99.90;;;;;;5090869;28;20045;-82
2023/05/16 07:04:24;;;;;;;5.75;1.20;;;10.80;99.90;;;;;;5054617;28;20047;-82
2023/05/16 07:06:51;;;;;;;6.72;1.20;;;10.80;99.90;;;;;;5091614;28;20040;-82
2023/05/16 07:09:19;;;;;;;9.07;1.85;;;10.90;99.90;;;;;;5091564;28;20040;-83
2023/05/16 07:11:46;;;;;;;10.07;1.30;;;10.90;99.90;;;;;;5075480;28;20040;-84
2023/05/16 07:14:13;;;;;;;8.38;1.08;;;10.90;99.90;;;;;;5092238;28;20098;-86
2023/05/16 07:16:39;;;;;;;7.03;1.45;;;11.00;99.90;;;;;;5076453;28;20040;-84
2023/05/16 07:19:07;;;;;;;6.28;1.42;;;11.10;99.90;;;;;;5059076;28;20037;-85
2023/05/16 07:21:33;;;;;;;4.22;1.40;;;11.30;99.90;;;;;;5059864;28;20415;-86
2023/05/16 07:24:00;;;;;;;7.53;1.45;;;11.50;99.90;;;;;;5059663;28;20051;-85
2023/05/16 07:26:27;;;;;;;6.47;1.25;;;11.60;99.90;;;;;;5058833;28;20048;-85
2023/05/16 07:28:54;;;;;;;9.68;1.75;;;11.70;99.90;;;;;;5059226;28;20029;-82
2023/05/16 07:31:20;;;;;;;8.32;1.33;;;11.80;99.90;;;;;;5058773;28;20097;-82
2023/05/16 07:33:47;;;;;;;10.38;1.50;;;11.80;99.90;;;;;;5091241;28;20465;-83
2023/05/16 07:36:15;;;;;;;6.60;1.20;;;11.90;99.90;;;;;;5075091;28;20048;-82
2023/05/16 07:38:42;;;;;;;9.68;2.67;;;11.90;99.90;;;;;;5054612;28;20086;-82
2023/05/16 07:41:08;;;;;;;3.75;1.13;;;11.90;99.90;;;;;;5046899;28;20392;-82
2023/05/16 07:43:35;;;;;;;7.03;1.42;;;11.90;99.90;;;;;;5058027;28;20043;-81
2023/05/16 07:46:02;;;;;;;8.23;1.10;;;11.90;99.90;;;;;;5074727;28;20060;-82
2023/05/16 07:48:29;;;;;;;11.50;1.52;;;11.90;99.90;;;;;;5090875;28;20159;-83
2023/05/16 07:50:56;;;;;;;5.68;1.10;;;11.80;99.90;;;;;;5040391;28;20045;-82
2023/05/16 07:53:23;;;;;;;6.95;1.27;;;11.60;99.90;;;;;;5037965;28;20040;-83
2023/05/16 07:55:50;;;;;;;8.05;1.17;;;11.50;99.90;;;;;;5070596;28;20580;-83
2023/05/16 07:58:17;;;;;;;7.18;1.13;;;11.30;99.90;;;;;;5087300;28;20041;-82
2023/05/16 08:00:43;;;;;;;8.68;1.63;;;11.30;99.90;;;;;;5054555;28;20048;-82
2023/05/16 08:03:10;;;;;;;8.68;1.75;;;11.30;99.90;;;;;;5037613;28;20048;-82
2023/05/16 08:05:37;;;;;;;7.20;1.65;;;11.50;99.90;;;;;;5070344;28;20123;-82
2023/05/16 08:08:04;;;;;;;7.65;1.30;;;11.70;99.90;;;;;;5056471;28;20037;-83
2023/05/16 08:10:31;;;;;;;5.78;1.55;;;11.90;99.90;;;;;;5051092;28;20028;-83
2023/05/16 08:12:57;;;;;;;7.25;1.15;;;12.00;99.90;;;;;;5040079;28;20094;-83
2023/05/16 08:15:26;;;;;;;9.43;1.73;;;12.00;99.90;;;;;;5037935;28;20497;-82
2023/05/16 08:18:00;;;;;;;5.10;1.27;;;12.10;99.90;;;;;;5092731;28;20086;-83
2023/05/16 08:20:26;;;;;;;8.15;1.58;;;12.20;99.90;;;;;;5068742;28;20094;-83
2023/05/16 08:22:54;;;;;;;7.22;1.25;;;12.40;99.90;;;;;;5070111;28;20045;-83
2023/05/16 08:25:20;;;;;;;4.32;1.27;;;12.50;99.90;;;;;;5070542;28;20080;-83
2023/05/16 08:27:49;;;;;;;6.53;1.70;;;12.50;99.90;;;;;;5069600;28;20079;-83
2023/05/16 08:30:15;;;;;;;6.45;1.25;;;12.50;99.90;;;;;;5055247;28;20032;-83
2023/05/16 08:32:42;;;;;;;6.85;1.30;;;12.40;99.90;;;;;;5090484;28;20036;-83
2023/05/16 08:35:10;;;;;;;11.50;1.60;;;12.30;99.90;;;;;;5072381;28;20040;-83
2023/05/16 08:37:36;;;;;;;7.35;1.33;;;12.10;99.90;;;;;;5042365;28;20531;-83
2023/05/16 08:40:09;;;;;;;13.32;1.30;;;12.20;99.90;;;;;;5078042;28;20078;-83
2023/05/16 08:42:37;;;;;;;7.13;1.40;;;12.50;99.90;;;;;;5105635;28;20052;-83
2023/05/16 08:45:05;;;;;;;8.93;1.65;;;12.80;99.90;;;;;;5092729;28;20041;-82
2023/05/16 08:47:33;;;;;;;8.25;1.45;;;12.70;99.90;;;;;;5053335;28;20061;-83
2023/05/16 08:50:02;;;;;;;6.15;1.20;;;12.70;99.90;;;;;;5053417;28;20387;-83
2023/05/16 08:52:32;;;;;;;7.75;1.23;;;12.60;99.90;;;;;;5100212;28;20474;-83
2023/05/16 08:55:06;;;;;;;6.22;1.45;;;12.50;99.90;;;;;;5090023;28;20087;-83
2023/05/16 08:57:34;;;;;;;7.28;1.88;;;12.60;99.90;;;;;;5107126;28;20105;-83
2023/05/16 09:00:10;;;;;;;5.07;1.20;;;12.60;99.90;;;;;;5089619;28;20044;-83
2023/05/16 09:02:38;;;;;;;9.00;1.55;;;12.70;99.90;;;;;;5070731;28;20493;-83
2023/05/16 09:05:08;;;;;;;6.63;1.30;;;12.90;99.90;;;;;;5069853;28;20068;-83
2023/05/16 09:07:36;;;;;;;7.18;1.27;;;13.10;99.90;;;;;;5086692;28;20036;-82
2023/05/16 09:10:04;;;;;;;8.02;1.48;;;13.20;99.90;;;;;;5053187;28;20052;-83
2023/05/16 09:12:32;;;;;;;9.82;1.38;;;13.10;99.90;;;;;;5039089;28;20037;-83
2023/05/16 09:15:01;;;;;;;8.50;1.63;;;13.10;99.90;;;;;;5036558;28;20045;-83
2023/05/16 09:17:37;;;;;;;9.43;1.35;;;13.10;99.90;;;;;;5069810;28;20354;-82
2023/05/16 09:20:17;;;;;;;5.97;1.30;;;13.20;99.90;;;;;;5069616;28;20052;-83
2023/05/16 09:22:57;;;;;;;7.65;1.20;;;13.20;99.90;;;;;;5069790;28;20422;-83
2023/05/16 09:25:27;;;;;;;8.30;1.30;;;13.10;99.90;;;;;;5070003;28;20562;-83
2023/05/16 09:27:56;;;;;;;6.15;1.30;;;12.80;99.90;;;;;;5086207;28;20052;-83
2023/05/16 09:30:28;;;;;;;7.93;1.40;;;12.30;99.90;;;;;;5087855;28;20056;-82
2023/05/16 09:32:55;;;;;;;3.53;1.02;;;11.80;99.90;;;;;;5072682;28;20032;-83
2023/05/16 09:35:22;;;;;;;5.10;1.48;;;11.40;99.90;;;;;;5043584;28;20119;-82
2023/05/16 09:37:52;;;;;;;4.50;0.82;;;11.20;99.90;;;;;;5057442;28;20048;-81
2023/05/16 09:40:21;;;;;;;5.85;0.88;;;11.10;99.90;;;;;;5091286;28;20045;-81
2023/05/16 09:43:04;;;;;;;3.78;1.05;;;11.30;99.90;;;;;;5052939;28;20033;-81
2023/05/16 09:45:32;;;;;;;5.50;1.08;;;11.60;99.90;;;;;;5086014;28;20048;-80
2023/05/16 09:48:07;;;;;;;5.55;1.20;;;12.00;99.90;;;;;;5047288;28;20536;-81
2023/05/16 09:50:36;;;;;;;8.35;1.88;;;12.40;99.90;;;;;;5058951;28;20044;-80
2023/05/16 09:53:03;;;;;;;6.78;1.35;;;12.60;99.90;;;;;;5069163;28;20493;-81
2023/05/16 09:55:31;;;;;;;4.97;1.00;;;12.70;99.90;;;;;;5085941;28;20128;-80
2023/05/16 09:57:57;;;;;;;6.93;1.30;;;12.60;99.90;;;;;;5087756;28;20401;-81
2023/05/16 10:00:32;;;;;;;6.13;1.00;;;12.40;99.90;;;;;;5085447;28;20037;-81
2023/05/16 10:03:00;;;;;;;7.05;1.13;;;12.30;99.90;;;;;;5104720;28;20093;-81
2023/05/16 10:05:27;;;;;;;3.50;0.95;;;12.50;99.90;;;;;;5080689;28;20128;-81
2023/05/16 10:07:56;;;;;;;3.75;0.80;;;12.50;99.90;;;;;;5053187;28;20048;-80
2023/05/16 10:10:23;;;;;;;5.68;1.08;;;12.40;99.90;;;;;;5069271;28;20039;-81
2023/05/16 10:12:51;;;;;;;3.50;0.80;;;12.20;99.90;;;;;;5069159;28;20124;-81
2023/05/16 10:15:19;;;;;;;7.35;1.00;;;12.30;99.90;;;;;;5052814;28;20032;-81
2023/05/16 10:17:52;;;;;;;3.42;1.00;;;12.40;99.90;;;;;;5085044;28;20779;-81
2023/05/16 10:20:20;;;;;;;4.93;1.10;;;12.70;99.90;;;;;;5089269;28;20052;-81
2023/05/16 10:22:49;;;;;;;4.75;1.00;;;12.90;99.90;;;;;;5056295;28;20040;-81
2023/05/16 10:25:30;;;;;;;5.05;1.00;;;13.10;99.90;;;;;;5071498;28;20044;-82
2023/05/16 10:27:58;;;;;;;6.68;0.98;;;13.30;99.90;;;;;;5083125;28;20041;-82
2023/05/16 10:30:26;;;;;;;6.40;1.20;;;13.30;99.90;;;;;;5085344;28;20037;-82
2023/05/16 10:32:53;;;;;;;8.02;1.50;;;13.40;99.90;;;;;;5093318;28;20036;-82
2023/05/16 10:35:20;;;;;;;6.20;1.30;;;13.50;99.90;;;;;;5071902;28;20036;-82
2023/05/16 10:37:49;;;;;;;8.52;1.17;;;13.60;99.90;;;;;;5039162;28;20090;-82
2023/05/16 10:40:17;;;;;;;4.85;1.20;;;13.90;99.90;;;;;;5087787;28;20033;-81
2023/05/16 10:42:57;;;;;;;6.00;1.27;;;13.80;99.90;;;;;;5071763;28;20037;-82
2023/05/16 10:45:24;;;;;;;7.88;1.40;;;13.90;99.90;;;;;;5105261;28;20493;-80
2023/05/16 10:47:55;;;;;;;9.32;1.20;;;14.00;99.90;;;;;;5088535;28;20056;-86
2023/05/16 10:50:32;;;;;;;7.45;1.33;;;14.20;99.90;;;;;;5088389;28;20187;-80
2023/05/16 10:53:22;;;;;;;11.63;1.60;;;14.00;99.90;;;;;;5088996;28;20040;-81
2023/05/16 10:56:10;;;;;;;8.77;1.35;;;13.70;99.90;;;;;;5089095;28;20386;-81
2023/05/16 10:58:39;;;;;;;6.55;1.08;;;13.00;99.90;;;;;;5070487;28;20155;-81
2023/05/16 11:01:23;;;;;;;7.18;1.33;;;12.30;99.90;;;;;;5070576;28;20041;-81
2023/05/16 11:04:00;;;;;;;4.50;1.58;;;11.90;99.90;;;;;;5071863;28;20444;-81
2023/05/16 11:06:34;;;;;;;6.60;1.13;;;11.80;99.90;;;;;;5071869;28;20033;-82
2023/05/16 11:09:10;;;;;;;5.30;1.23;;;11.80;99.90;;;;;;5090947;28;20101;-82
2023/05/16 11:11:39;;;;;;;;;;;12.00;99.90;;;;;;5092807;28;20036;-82
2023/05/16 11:14:06;;;;;;;8.68;1.23;;;12.30;99.90;;;;;;5091993;28;19950;-82
2023/05/16 11:16:34;;;;;;;9.18;1.33;;;12.60;99.90;;;;;;5059300;28;20041;-82
2023/05/16 11:19:06;;;;;;;10.02;1.35;;;12.90;99.90;;;;;;5061867;28;20041;-82
2023/05/16 11:22:08;;;;;;;6.40;1.75;;;13.10;99.90;;;;;;5073104;28;20071;-82
2023/05/16 11:24:47;;;;;;;4.63;1.30;;;13.10;99.90;;;;;;5092139;28;20044;-82
2023/05/16 11:27:25;;;;;;;6.22;1.10;;;13.20;99.90;;;;;;5091701;28;20036;-82
2023/05/16 11:29:53;;;;;;;4.47;1.30;;;13.10;99.90;;;;;;5108816;28;20040;-83
2023/05/16 11:32:21;;;;;;;7.97;1.27;;;13.20;99.90;;;;;;5091347;28;20033;-81
2023/05/16 11:34:50;;;;;;;8.00;1.60;;;13.20;99.90;;;;;;5072083;28;20083;-82
2023/05/16 11:37:18;;;;;;;9.90;1.40;;;13.10;99.90;;;;;;5071575;28;20535;-82
2023/05/16 11:39:46;;;;;;;4.93;1.02;;;12.90;99.90;;;;;;5071995;28;20505;-82
2023/05/16 11:42:12;;;;;;;9.75;1.60;;;12.80;99.90;;;;;;5055546;28;20087;-82
2023/05/16 11:44:40;;;;;;;5.68;1.15;;;12.90;99.90;;;;;;5040076;28;20450;-82
2023/05/16 11:47:07;;;;;;;7.80;1.17;;;12.80;99.90;;;;;;5075231;28;20047;-82
2023/05/16 11:49:34;;;;;;;5.05;1.15;;;12.90;99.90;;;;;;5074442;28;20054;-82
2023/05/16 11:52:02;;;;;;;5.35;1.55;;;13.30;99.90;;;;;;5091021;28;20033;-82
2023/05/16 11:54:33;;;;;;;5.72;1.25;;;13.50;99.90;;;;;;5055719;28;20714;-83
2023/05/16 11:57:00;;;;;;;8.70;1.60;;;13.70;99.90;;;;;;5055451;28;20048;-83
2023/05/16 11:59:27;;;;;;;7.72;1.13;;;14.00;99.90;;;;;;5074294;28;20045;-82
2023/05/16 12:01:54;;;;;;;5.60;1.40;;;14.20;99.90;;;;;;5075196;28;20048;-83
2023/05/16 12:04:22;;;;;;;7.03;1.17;;;14.20;99.90;;;;;;5075052;28;20080;-83
2023/05/16 12:06:58;;;;;;;5.20;1.35;;;14.20;99.90;;;;;;5058861;28;20080;-83
2023/05/16 12:09:25;;;;;;;6.63;1.20;;;14.20;99.90;;;;;;5091946;28;20047;-82
2023/05/16 12:11:52;;;;;;;5.53;1.50;;;14.10;99.90;;;;;;5074536;28;20036;-82
2023/05/16 12:14:20;;;;;;;5.88;1.42;;;13.80;99.90;;;;;;5058519;28;20044;-83
2023/05/16 12:16:48;;;;;;;5.90;1.40;;;13.90;99.90;;;;;;5075288;28;20042;-83
2023/05/16 12:19:15;;;;;;;8.57;1.95;;;14.20;99.90;;;;;;5074961;28;20044;-83
2023/05/16 12:21:41;;;;;;;8.23;1.50;;;13.90;99.90;;;;;;5069761;28;20097;-83
2023/05/16 12:24:10;;;;;;;6.57;2.00;;;14.20;99.90;;;;;;5059211;28;20037;-83
2023/05/16 12:26:40;;;;;;;12.20;2.00;;;13.90;99.90;;;;;;5071213;28;20037;-83
2023/05/16 12:29:07;;;;;;;7.22;1.40;;;13.80;99.90;;;;;;5054701;28;20045;-83
2023/05/16 12:31:39;;;;;;;9.77;2.10;;;14.00;99.90;;;;;;5087774;28;20044;-83
2023/05/16 12:34:20;;;;;;;6.88;1.65;;;13.80;99.90;;;;;;5054992;28;20448;-83
2023/05/16 12:36:51;;;;;;;8.25;1.52;;;13.60;99.90;;;;;;5055052;28;20473;-83
2023/05/16 12:39:19;;;;;;;6.65;1.40;;;13.60;99.90;;;;;;5054573;28;20041;-83
2023/05/16 12:41:45;;;;;;;7.28;1.50;;;13.70;99.90;;;;;;5079507;28;20110;-83
2023/05/16 12:44:15;;;;;;;6.22;1.50;;;13.90;99.90;;;;;;5058047;28;20048;-83
2023/05/16 12:46:44;;;;;;;7.90;1.95;;;14.10;99.90;;;;;;5074228;28;20097;-83
2023/05/16 12:49:12;;;;;;;6.82;1.80;;;14.30;99.90;;;;;;5092000;28;20573;-83
2023/05/16 12:51:47;;;;;;;6.45;1.60;;;14.30;99.90;;;;;;5069493;28;20036;-83
2023/05/16 12:54:14;;;;;;;9.05;1.80;;;14.10;99.90;;;;;;5055549;28;20091;-83
2023/05/16 12:56:41;;;;;;;9.65;2.13;;;14.00;99.90;;;;;;5053480;28;20856;-83
2023/05/16 12:59:08;;;;;;;8.00;2.65;;;14.00;99.90;;;;;;5037661;28;20047;-83